sensor_id;sensor_type;location;lat;lon;timestamp;temperature;humidity
39347;DHT22;26262;49.836;6.632;2023-07-31T00:00:28;16.80;99.90
39347;DHT22;26262;49.836;6.632;2023-07-31T00:02:54;16.90;99.90
39347;DHT22;26262;49.836;6.632;2023-07-31T00:05:19;17.00;99.90
39347;DHT22;26262;49.836;6.632;2023-07-31T00:07:44;17.00;99.90
39347;DHT22;26262;49.836;6.632;2023-07-31T00:10:10;16.90;99.90
39347;DHT22;26262;49.836;6.632;2023-07-31T00:12:35;16.90;99.90
39347;DHT22;26262;49.836;6.632;2023-07-31T00:15:01;16.70;99.90
39347;DHT22;26262;49.836;6.632;2023-07-31T00:17:27;16.70;99.90
39347;DHT22;26262;49.836;6.632;2023-07-31T00:19:53;16.80;99.90
39347;DHT22;26262;49.836;6.632;2023-07-31T00:22:18;16.90;99.90
39347;DHT22;26262;49.836;6.632;2023-07-31T00:24:44;16.90;99.90
39347;DHT22;26262;49.836;6.632;2023-07-31T00:27:09;17.00;99.90
39347;DHT22;26262;49.836;6.632;2023-07-31T00:29:34;17.10;99.90
39347;DHT22;26262;49.836;6.632;2023-07-31T00:32:00;17.20;99.90
39347;DHT22;26262;49.836;6.632;2023-07-31T00:34:26;17.30;99.90
39347;DHT22;26262;49.836;6.632;2023-07-31T00:36:51;17.40;99.90
39347;DHT22;26262;49.836;6.632;2023-07-31T00:39:16;17.50;99.90
39347;DHT22;26262;49.836;6.632;2023-07-31T00:41:42;17.50;99.90
39347;DHT22;26262;49.836;6.632;2023-07-31T00:44:08;17.60;99.90
39347;DHT22;26262;49.836;6.632;2023-07-31T00:46:33;17.60;99.90
39347;DHT22;26262;49.836;6.632;2023-07-31T00:48:58;17.60;99.90
39347;DHT22;26262;49.836;6.632;2023-07-31T00:51:24;17.50;99.90
39347;DHT22;26262;49.836;6.632;2023-07-31T00:53:49;17.60;99.90
39347;DHT22;26262;49.836;6.632;2023-07-31T00:56:15;17.60;99.90
39347;DHT22;26262;49.836;6.632;2023-07-31T00:58:41;17.60;99.90
39347;DHT22;26262;49.836;6.632;2023-07-31T01:01:06;17.60;99.90
39347;DHT22;26262;49.836;6.632;2023-07-31T01:03:31;17.60;99.90
39347;DHT22;26262;49.836;6.632;2023-07-31T01:08:33;17.40;99.90
39347;DHT22;26262;49.836;6.632;2023-07-31T01:11:09;17.40;99.90
39347;DHT22;26262;49.836;6.632;2023-07-31T01:13:38;17.40;99.90
39347;DHT22;26262;49.836;6.632;2023-07-31T01:16:04;17.20;99.90
39347;DHT22;26262;49.836;6.632;2023-07-31T01:18:29;17.20;99.90
39347;DHT22;26262;49.836;6.632;2023-07-31T01:20:57;17.20;99.90
39347;DHT22;26262;49.836;6.632;2023-07-31T01:23:41;17.10;99.90
39347;DHT22;26262;49.836;6.632;2023-07-31T01:26:11;17.20;99.90
39347;DHT22;26262;49.836;6.632;2023-07-31T01:28:40;17.10;99.90
39347;DHT22;26262;49.836;6.632;2023-07-31T01:31:09;17.10;99.90
39347;DHT22;26262;49.836;6.632;2023-07-31T01:33:35;17.10;99.90
39347;DHT22;26262;49.836;6.632;2023-07-31T01:36:01;17.10;99.90
39347;DHT22;26262;49.836;6.632;2023-07-31T01:38:27;17.00;99.90
39347;DHT22;26262;49.836;6.632;2023-07-31T01:40:52;17.20;99.90
39347;DHT22;26262;49.836;6.632;2023-07-31T01:43:18;17.30;99.90
39347;DHT22;26262;49.836;6.632;2023-07-31T01:45:44;17.30;99.90
39347;DHT22;26262;49.836;6.632;2023-07-31T01:48:09;17.30;99.90
39347;DHT22;26262;49.836;6.632;2023-07-31T01:50:35;17.40;99.90
39347;DHT22;26262;49.836;6.632;2023-07-31T01:53:00;17.40;99.90
39347;DHT22;26262;49.836;6.632;2023-07-31T01:55:26;17.30;99.90
39347;DHT22;26262;49.836;6.632;2023-07-31T01:57:51;17.30;99.90
39347;DHT22;26262;49.836;6.632;2023-07-31T02:00:17;17.40;99.90
39347;DHT22;26262;49.836;6.632;2023-07-31T02:02:43;17.10;99.90
39347;DHT22;26262;49.836;6.632;2023-07-31T02:05:08;17.00;99.90
39347;DHT22;26262;49.836;6.632;2023-07-31T02:07:34;17.00;99.90
39347;DHT22;26262;49.836;6.632;2023-07-31T02:09:59;17.00;99.90
39347;DHT22;26262;49.836;6.632;2023-07-31T02:12:24;17.00;99.90
39347;DHT22;26262;49.836;6.632;2023-07-31T02:14:50;17.00;99.90
39347;DHT22;26262;49.836;6.632;2023-07-31T02:17:15;16.90;99.90
39347;DHT22;26262;49.836;6.632;2023-07-31T02:19:41;16.90;99.90
39347;DHT22;26262;49.836;6.632;2023-07-31T02:22:06;16.90;99.90
39347;DHT22;26262;49.836;6.632;2023-07-31T02:24:31;16.90;99.90
39347;DHT22;26262;49.836;6.632;2023-07-31T02:26:57;17.00;99.90
39347;DHT22;26262;49.836;6.632;2023-07-31T02:29:22;16.90;99.90
39347;DHT22;26262;49.836;6.632;2023-07-31T02:31:48;16.80;99.90
39347;DHT22;26262;49.836;6.632;2023-07-31T02:34:13;16.80;99.90
39347;DHT22;26262;49.836;6.632;2023-07-31T02:36:39;16.80;99.90
39347;DHT22;26262;49.836;6.632;2023-07-31T02:39:04;16.80;99.90
39347;DHT22;26262;49.836;6.632;2023-07-31T02:41:30;16.80;99.90
39347;DHT22;26262;49.836;6.632;2023-07-31T02:43:55;16.80;99.90
39347;DHT22;26262;49.836;6.632;2023-07-31T02:46:20;16.80;99.90
39347;DHT22;26262;49.836;6.632;2023-07-31T02:48:49;16.70;99.90
39347;DHT22;26262;49.836;6.632;2023-07-31T02:51:15;16.70;99.90
39347;DHT22;26262;49.836;6.632;2023-07-31T02:53:40;16.60;99.90
39347;DHT22;26262;49.836;6.632;2023-07-31T02:56:05;16.60;99.90
39347;DHT22;26262;49.836;6.632;2023-07-31T02:58:31;16.60;99.90
39347;DHT22;26262;49.836;6.632;2023-07-31T03:00:58;16.60;99.90
39347;DHT22;26262;49.836;6.632;2023-07-31T03:03:23;16.60;99.90
39347;DHT22;26262;49.836;6.632;2023-07-31T03:05:48;16.60;99.90
39347;DHT22;26262;49.836;6.632;2023-07-31T03:08:14;16.60;99.90
39347;DHT22;26262;49.836;6.632;2023-07-31T03:10:39;16.50;99.90
39347;DHT22;26262;49.836;6.632;2023-07-31T03:13:05;16.40;99.90
39347;DHT22;26262;49.836;6.632;2023-07-31T03:15:30;16.50;99.90
39347;DHT22;26262;49.836;6.632;2023-07-31T03:17:55;16.50;99.90
39347;DHT22;26262;49.836;6.632;2023-07-31T03:20:21;16.50;99.90
39347;DHT22;26262;49.836;6.632;2023-07-31T03:22:46;16.60;99.90
39347;DHT22;26262;49.836;6.632;2023-07-31T03:25:12;16.50;99.90
39347;DHT22;26262;49.836;6.632;2023-07-31T03:27:37;16.60;99.90
39347;DHT22;26262;49.836;6.632;2023-07-31T03:30:03;16.60;99.90
39347;DHT22;26262;49.836;6.632;2023-07-31T03:32:28;16.60;99.90
39347;DHT22;26262;49.836;6.632;2023-07-31T03:34:54;16.60;99.90
39347;DHT22;26262;49.836;6.632;2023-07-31T03:37:19;16.60;99.90
39347;DHT22;26262;49.836;6.632;2023-07-31T03:39:45;16.70;99.90
39347;DHT22;26262;49.836;6.632;2023-07-31T03:42:10;16.80;99.90
39347;DHT22;26262;49.836;6.632;2023-07-31T03:44:36;16.90;99.90
39347;DHT22;26262;49.836;6.632;2023-07-31T03:47:01;17.00;99.90
39347;DHT22;26262;49.836;6.632;2023-07-31T03:49:27;17.00;99.90
39347;DHT22;26262;49.836;6.632;2023-07-31T03:51:52;17.10;99.90
39347;DHT22;26262;49.836;6.632;2023-07-31T03:54:17;17.10;99.90
39347;DHT22;26262;49.836;6.632;2023-07-31T03:56:43;17.10;99.90
39347;DHT22;26262;49.836;6.632;2023-07-31T03:59:08;17.00;99.90
39347;DHT22;26262;49.836;6.632;2023-07-31T04:01:34;17.00;99.90
39347;DHT22;26262;49.836;6.632;2023-07-31T04:03:59;16.70;99.90
39347;DHT22;26262;49.836;6.632;2023-07-31T04:06:24;16.60;99.90
39347;DHT22;26262;49.836;6.632;2023-07-31T04:08:50;16.60;99.90
39347;DHT22;26262;49.836;6.632;2023-07-31T04:11:15;16.50;99.90
39347;DHT22;26262;49.836;6.632;2023-07-31T04:13:41;16.50;99.90
39347;DHT22;26262;49.836;6.632;2023-07-31T04:16:06;16.60;99.90
39347;DHT22;26262;49.836;6.632;2023-07-31T04:18:31;16.40;99.90
39347;DHT22;26262;49.836;6.632;2023-07-31T04:20:57;16.40;99.90
39347;DHT22;26262;49.836;6.632;2023-07-31T04:23:26;16.20;99.90
39347;DHT22;26262;49.836;6.632;2023-07-31T04:25:52;16.10;99.90
39347;DHT22;26262;49.836;6.632;2023-07-31T04:28:17;16.10;99.90
39347;DHT22;26262;49.836;6.632;2023-07-31T04:30:42;16.20;99.90
39347;DHT22;26262;49.836;6.632;2023-07-31T04:33:08;16.00;99.90
39347;DHT22;26262;49.836;6.632;2023-07-31T04:35:33;16.10;99.90
39347;DHT22;26262;49.836;6.632;2023-07-31T04:37:59;16.00;99.90
39347;DHT22;26262;49.836;6.632;2023-07-31T04:40:24;16.00;99.90
39347;DHT22;26262;49.836;6.632;2023-07-31T04:42:50;16.00;99.90
39347;DHT22;26262;49.836;6.632;2023-07-31T04:45:15;16.00;99.90
39347;DHT22;26262;49.836;6.632;2023-07-31T04:47:41;16.00;99.90
39347;DHT22;26262;49.836;6.632;2023-07-31T04:50:06;16.00;99.90
39347;DHT22;26262;49.836;6.632;2023-07-31T04:52:32;15.90;99.90
39347;DHT22;26262;49.836;6.632;2023-07-31T04:54:57;16.00;99.90
39347;DHT22;26262;49.836;6.632;2023-07-31T04:57:23;16.10;99.90
39347;DHT22;26262;49.836;6.632;2023-07-31T04:59:48;16.00;99.90
39347;DHT22;26262;49.836;6.632;2023-07-31T05:02:13;16.10;99.90
39347;DHT22;26262;49.836;6.632;2023-07-31T05:04:39;16.20;99.90
39347;DHT22;26262;49.836;6.632;2023-07-31T05:07:04;16.10;99.90
39347;DHT22;26262;49.836;6.632;2023-07-31T05:09:30;16.10;99.90
39347;DHT22;26262;49.836;6.632;2023-07-31T05:11:55;16.10;99.90
39347;DHT22;26262;49.836;6.632;2023-07-31T05:14:21;16.10;99.90
39347;DHT22;26262;49.836;6.632;2023-07-31T05:16:46;16.00;99.90
39347;DHT22;26262;49.836;6.632;2023-07-31T05:19:11;15.90;99.90
39347;DHT22;26262;49.836;6.632;2023-07-31T05:21:37;15.90;99.90
39347;DHT22;26262;49.836;6.632;2023-07-31T05:24:03;16.00;99.90
39347;DHT22;26262;49.836;6.632;2023-07-31T05:26:28;16.00;99.90
39347;DHT22;26262;49.836;6.632;2023-07-31T05:28:53;16.00;99.90
39347;DHT22;26262;49.836;6.632;2023-07-31T05:31:19;16.00;99.90
39347;DHT22;26262;49.836;6.632;2023-07-31T05:33:46;16.20;99.90
39347;DHT22;26262;49.836;6.632;2023-07-31T05:36:11;16.10;99.90
39347;DHT22;26262;49.836;6.632;2023-07-31T05:38:37;16.20;99.90
39347;DHT22;26262;49.836;6.632;2023-07-31T05:41:02;16.20;99.90
39347;DHT22;26262;49.836;6.632;2023-07-31T05:43:28;16.30;99.90
39347;DHT22;26262;49.836;6.632;2023-07-31T05:45:53;16.40;99.90
39347;DHT22;26262;49.836;6.632;2023-07-31T05:48:18;16.60;99.90
39347;DHT22;26262;49.836;6.632;2023-07-31T05:50:44;16.70;99.90
39347;DHT22;26262;49.836;6.632;2023-07-31T05:53:09;16.70;99.90
39347;DHT22;26262;49.836;6.632;2023-07-31T05:55:35;16.90;99.90
39347;DHT22;26262;49.836;6.632;2023-07-31T05:58:01;16.90;99.90
39347;DHT22;26262;49.836;6.632;2023-07-31T06:00:26;17.00;99.90
39347;DHT22;26262;49.836;6.632;2023-07-31T06:02:53;17.20;99.90
39347;DHT22;26262;49.836;6.632;2023-07-31T06:05:18;17.20;99.90
39347;DHT22;26262;49.836;6.632;2023-07-31T06:07:44;17.30;99.90
39347;DHT22;26262;49.836;6.632;2023-07-31T06:10:09;17.40;99.90
39347;DHT22;26262;49.836;6.632;2023-07-31T06:12:35;17.40;99.90
39347;DHT22;26262;49.836;6.632;2023-07-31T06:15:01;17.50;99.90
39347;DHT22;26262;49.836;6.632;2023-07-31T06:17:27;17.50;99.90
39347;DHT22;26262;49.836;6.632;2023-07-31T06:19:52;17.60;99.90
39347;DHT22;26262;49.836;6.632;2023-07-31T06:22:18;17.70;99.90
39347;DHT22;26262;49.836;6.632;2023-07-31T06:24:43;17.70;99.90
39347;DHT22;26262;49.836;6.632;2023-07-31T06:27:10;17.80;99.90
39347;DHT22;26262;49.836;6.632;2023-07-31T06:29:35;18.00;99.90
39347;DHT22;26262;49.836;6.632;2023-07-31T06:32:01;18.20;99.90
39347;DHT22;26262;49.836;6.632;2023-07-31T06:34:26;18.20;99.90
39347;DHT22;26262;49.836;6.632;2023-07-31T06:36:51;18.40;99.90
39347;DHT22;26262;49.836;6.632;2023-07-31T06:39:17;18.60;99.90
39347;DHT22;26262;49.836;6.632;2023-07-31T06:41:43;18.70;99.90
39347;DHT22;26262;49.836;6.632;2023-07-31T06:44:09;18.80;99.90
39347;DHT22;26262;49.836;6.632;2023-07-31T06:46:35;18.80;99.90
39347;DHT22;26262;49.836;6.632;2023-07-31T06:49:00;18.90;99.90
39347;DHT22;26262;49.836;6.632;2023-07-31T06:51:26;18.90;99.90
39347;DHT22;26262;49.836;6.632;2023-07-31T06:53:51;18.90;99.90
39347;DHT22;26262;49.836;6.632;2023-07-31T06:56:16;18.90;99.90
39347;DHT22;26262;49.836;6.632;2023-07-31T06:58:42;18.80;99.90
39347;DHT22;26262;49.836;6.632;2023-07-31T07:01:08;18.70;99.90
39347;DHT22;26262;49.836;6.632;2023-07-31T07:03:33;18.70;99.90
39347;DHT22;26262;49.836;6.632;2023-07-31T07:05:59;18.70;99.90
39347;DHT22;26262;49.836;6.632;2023-07-31T07:08:25;18.70;99.90
39347;DHT22;26262;49.836;6.632;2023-07-31T07:10:50;18.80;99.90
39347;DHT22;26262;49.836;6.632;2023-07-31T07:13:16;18.80;99.90
39347;DHT22;26262;49.836;6.632;2023-07-31T07:15:43;18.60;99.90
39347;DHT22;26262;49.836;6.632;2023-07-31T07:18:12;18.60;99.90
39347;DHT22;26262;49.836;6.632;2023-07-31T07:20:38;18.60;99.90
39347;DHT22;26262;49.836;6.632;2023-07-31T07:23:03;18.60;99.90
39347;DHT22;26262;49.836;6.632;2023-07-31T07:25:29;18.50;99.90
39347;DHT22;26262;49.836;6.632;2023-07-31T07:27:54;18.50;99.90
39347;DHT22;26262;49.836;6.632;2023-07-31T07:30:20;18.50;99.90
39347;DHT22;26262;49.836;6.632;2023-07-31T07:32:45;18.50;99.90
39347;DHT22;26262;49.836;6.632;2023-07-31T07:35:11;18.50;99.90
39347;DHT22;26262;49.836;6.632;2023-07-31T07:37:36;18.60;99.90
39347;DHT22;26262;49.836;6.632;2023-07-31T07:40:02;18.70;99.90
39347;DHT22;26262;49.836;6.632;2023-07-31T07:42:28;18.80;99.90
39347;DHT22;26262;49.836;6.632;2023-07-31T07:44:53;18.80;99.90
39347;DHT22;26262;49.836;6.632;2023-07-31T07:47:18;18.90;99.90
39347;DHT22;26262;49.836;6.632;2023-07-31T07:49:44;19.00;99.90
39347;DHT22;26262;49.836;6.632;2023-07-31T07:52:09;19.10;99.90
39347;DHT22;26262;49.836;6.632;2023-07-31T07:54:35;19.10;99.90
39347;DHT22;26262;49.836;6.632;2023-07-31T07:57:00;19.10;99.90
39347;DHT22;26262;49.836;6.632;2023-07-31T07:59:26;19.00;99.90
39347;DHT22;26262;49.836;6.632;2023-07-31T08:01:51;19.20;99.90
39347;DHT22;26262;49.836;6.632;2023-07-31T08:04:17;19.40;99.90
39347;DHT22;26262;49.836;6.632;2023-07-31T08:06:42;19.50;99.90
39347;DHT22;26262;49.836;6.632;2023-07-31T08:09:07;19.60;99.90
39347;DHT22;26262;49.836;6.632;2023-07-31T08:11:34;19.70;99.90
39347;DHT22;26262;49.836;6.632;2023-07-31T08:13:59;19.80;99.90
39347;DHT22;26262;49.836;6.632;2023-07-31T08:16:25;19.90;99.90
39347;DHT22;26262;49.836;6.632;2023-07-31T08:18:50;19.80;99.90
39347;DHT22;26262;49.836;6.632;2023-07-31T08:21:16;19.70;99.90
39347;DHT22;26262;49.836;6.632;2023-07-31T08:23:41;19.90;99.90
39347;DHT22;26262;49.836;6.632;2023-07-31T08:26:06;20.00;99.90
39347;DHT22;26262;49.836;6.632;2023-07-31T08:28:32;19.90;99.90
39347;DHT22;26262;49.836;6.632;2023-07-31T08:30:58;20.10;99.90
39347;DHT22;26262;49.836;6.632;2023-07-31T08:33:23;20.20;99.90
39347;DHT22;26262;49.836;6.632;2023-07-31T08:35:48;20.30;99.90
39347;DHT22;26262;49.836;6.632;2023-07-31T08:38:14;20.40;99.90
39347;DHT22;26262;49.836;6.632;2023-07-31T08:40:39;20.30;99.90
39347;DHT22;26262;49.836;6.632;2023-07-31T08:43:05;20.30;99.90
39347;DHT22;26262;49.836;6.632;2023-07-31T08:45:31;20.40;99.90
39347;DHT22;26262;49.836;6.632;2023-07-31T08:47:57;20.50;99.90
39347;DHT22;26262;49.836;6.632;2023-07-31T08:50:23;20.60;99.90
39347;DHT22;26262;49.836;6.632;2023-07-31T08:52:49;20.50;99.90
39347;DHT22;26262;49.836;6.632;2023-07-31T08:55:15;20.50;99.90
39347;DHT22;26262;49.836;6.632;2023-07-31T08:57:41;20.40;99.90
39347;DHT22;26262;49.836;6.632;2023-07-31T09:00:08;20.30;99.90
39347;DHT22;26262;49.836;6.632;2023-07-31T09:02:35;20.30;99.90
39347;DHT22;26262;49.836;6.632;2023-07-31T09:05:02;20.40;99.90
39347;DHT22;26262;49.836;6.632;2023-07-31T09:07:28;20.40;99.90
39347;DHT22;26262;49.836;6.632;2023-07-31T09:09:54;20.40;99.90
39347;DHT22;26262;49.836;6.632;2023-07-31T09:12:19;20.40;99.90
39347;DHT22;26262;49.836;6.632;2023-07-31T09:14:46;20.50;99.90
39347;DHT22;26262;49.836;6.632;2023-07-31T09:17:12;20.50;99.90
39347;DHT22;26262;49.836;6.632;2023-07-31T09:19:37;20.70;99.90
39347;DHT22;26262;49.836;6.632;2023-07-31T09:22:03;20.90;99.90
39347;DHT22;26262;49.836;6.632;2023-07-31T09:24:30;20.80;99.90
39347;DHT22;26262;49.836;6.632;2023-07-31T09:26:56;20.90;99.90
39347;DHT22;26262;49.836;6.632;2023-07-31T09:29:22;21.00;99.90
39347;DHT22;26262;49.836;6.632;2023-07-31T09:31:48;21.00;99.90
39347;DHT22;26262;49.836;6.632;2023-07-31T09:34:14;20.90;99.90
39347;DHT22;26262;49.836;6.632;2023-07-31T09:36:43;20.90;99.90
39347;DHT22;26262;49.836;6.632;2023-07-31T09:39:10;20.80;99.90
39347;DHT22;26262;49.836;6.632;2023-07-31T09:41:37;20.80;99.90
39347;DHT22;26262;49.836;6.632;2023-07-31T09:44:03;21.10;99.90
39347;DHT22;26262;49.836;6.632;2023-07-31T09:46:29;21.10;99.90
39347;DHT22;26262;49.836;6.632;2023-07-31T09:49:03;21.20;99.90
39347;DHT22;26262;49.836;6.632;2023-07-31T09:51:29;21.30;99.90
39347;DHT22;26262;49.836;6.632;2023-07-31T09:53:56;21.30;99.90
39347;DHT22;26262;49.836;6.632;2023-07-31T09:56:21;21.30;99.90
39347;DHT22;26262;49.836;6.632;2023-07-31T09:58:48;21.20;99.90
39347;DHT22;26262;49.836;6.632;2023-07-31T10:01:14;21.20;99.90
39347;DHT22;26262;49.836;6.632;2023-07-31T10:03:40;21.10;99.90
39347;DHT22;26262;49.836;6.632;2023-07-31T10:06:06;21.20;99.90
39347;DHT22;26262;49.836;6.632;2023-07-31T10:08:33;20.90;99.90
39347;DHT22;26262;49.836;6.632;2023-07-31T10:11:01;20.80;99.90
39347;DHT22;26262;49.836;6.632;2023-07-31T10:13:28;20.80;99.90
39347;DHT22;26262;49.836;6.632;2023-07-31T10:15:54;20.90;99.90
39347;DHT22;26262;49.836;6.632;2023-07-31T10:18:19;20.80;99.90
39347;DHT22;26262;49.836;6.632;2023-07-31T10:20:46;20.90;99.90
39347;DHT22;26262;49.836;6.632;2023-07-31T10:23:12;20.90;99.90
39347;DHT22;26262;49.836;6.632;2023-07-31T10:25:38;20.90;99.90
39347;DHT22;26262;49.836;6.632;2023-07-31T10:28:04;20.90;99.90
39347;DHT22;26262;49.836;6.632;2023-07-31T10:30:30;20.70;99.90
39347;DHT22;26262;49.836;6.632;2023-07-31T10:32:56;20.60;99.90
39347;DHT22;26262;49.836;6.632;2023-07-31T10:35:22;20.60;99.90
39347;DHT22;26262;49.836;6.632;2023-07-31T10:37:47;20.60;99.90
39347;DHT22;26262;49.836;6.632;2023-07-31T10:40:17;20.40;99.90
39347;DHT22;26262;49.836;6.632;2023-07-31T10:45:10;20.30;99.90
39347;DHT22;26262;49.836;6.632;2023-07-31T10:48:17;20.30;99.90
39347;DHT22;26262;49.836;6.632;2023-07-31T10:50:25;20.30;99.90
39347;DHT22;26262;49.836;6.632;2023-07-31T10:52:52;20.40;99.90
39347;DHT22;26262;49.836;6.632;2023-07-31T10:57:56;20.40;99.90
39347;DHT22;26262;49.836;6.632;2023-07-31T11:00:26;20.50;99.90
39347;DHT22;26262;49.836;6.632;2023-07-31T11:08:26;21.30;99.90
39347;DHT22;26262;49.836;6.632;2023-07-31T11:13:33;21.40;99.90
39347;DHT22;26262;49.836;6.632;2023-07-31T11:15:59;21.50;99.90
39347;DHT22;26262;49.836;6.632;2023-07-31T11:18:25;21.60;99.90
39347;DHT22;26262;49.836;6.632;2023-07-31T11:20:52;21.70;99.90
39347;DHT22;26262;49.836;6.632;2023-07-31T11:23:18;21.70;99.90
39347;DHT22;26262;49.836;6.632;2023-07-31T11:25:44;21.60;99.90
39347;DHT22;26262;49.836;6.632;2023-07-31T11:28:12;21.70;99.90
39347;DHT22;26262;49.836;6.632;2023-07-31T11:30:38;21.50;99.90
39347;DHT22;26262;49.836;6.632;2023-07-31T11:33:06;21.60;99.90
39347;DHT22;26262;49.836;6.632;2023-07-31T11:35:32;21.40;99.90
39347;DHT22;26262;49.836;6.632;2023-07-31T11:37:58;21.30;99.90
39347;DHT22;26262;49.836;6.632;2023-07-31T11:40:23;21.30;99.90
39347;DHT22;26262;49.836;6.632;2023-07-31T11:42:54;20.90;99.90
39347;DHT22;26262;49.836;6.632;2023-07-31T11:45:20;20.80;99.90
39347;DHT22;26262;49.836;6.632;2023-07-31T11:47:45;20.80;99.90
39347;DHT22;26262;49.836;6.632;2023-07-31T11:50:11;20.60;99.90
39347;DHT22;26262;49.836;6.632;2023-07-31T11:52:38;20.50;99.90
39347;DHT22;26262;49.836;6.632;2023-07-31T11:55:05;20.40;99.90
39347;DHT22;26262;49.836;6.632;2023-07-31T11:57:32;20.60;99.90
39347;DHT22;26262;49.836;6.632;2023-07-31T11:59:58;20.80;99.90
39347;DHT22;26262;49.836;6.632;2023-07-31T12:02:23;21.00;99.90
39347;DHT22;26262;49.836;6.632;2023-07-31T12:04:49;20.80;99.90
39347;DHT22;26262;49.836;6.632;2023-07-31T12:07:14;20.80;99.90
39347;DHT22;26262;49.836;6.632;2023-07-31T12:09:50;20.80;99.90
39347;DHT22;26262;49.836;6.632;2023-07-31T12:12:19;20.60;99.90
39347;DHT22;26262;49.836;6.632;2023-07-31T12:14:44;20.30;99.90
39347;DHT22;26262;49.836;6.632;2023-07-31T12:17:10;20.00;99.90
39347;DHT22;26262;49.836;6.632;2023-07-31T12:19:36;19.70;99.90
39347;DHT22;26262;49.836;6.632;2023-07-31T12:22:01;19.40;99.90
39347;DHT22;26262;49.836;6.632;2023-07-31T12:24:27;19.00;99.90
39347;DHT22;26262;49.836;6.632;2023-07-31T12:26:53;18.60;99.90
39347;DHT22;26262;49.836;6.632;2023-07-31T12:29:20;18.50;99.90
39347;DHT22;26262;49.836;6.632;2023-07-31T12:31:45;18.40;99.90
39347;DHT22;26262;49.836;6.632;2023-07-31T12:34:17;18.50;99.90
39347;DHT22;26262;49.836;6.632;2023-07-31T12:36:43;18.70;99.90
39347;DHT22;26262;49.836;6.632;2023-07-31T12:39:09;18.70;99.90
39347;DHT22;26262;49.836;6.632;2023-07-31T12:41:34;18.70;99.90
39347;DHT22;26262;49.836;6.632;2023-07-31T12:43:59;18.90;99.90
39347;DHT22;26262;49.836;6.632;2023-07-31T12:46:25;19.10;99.90
39347;DHT22;26262;49.836;6.632;2023-07-31T12:48:50;19.10;99.90
39347;DHT22;26262;49.836;6.632;2023-07-31T12:51:16;18.70;99.90
39347;DHT22;26262;49.836;6.632;2023-07-31T12:53:41;18.60;99.90
39347;DHT22;26262;49.836;6.632;2023-07-31T12:56:07;18.80;99.90
39347;DHT22;26262;49.836;6.632;2023-07-31T12:58:32;18.60;99.90
39347;DHT22;26262;49.836;6.632;2023-07-31T13:00:57;18.90;99.90
39347;DHT22;26262;49.836;6.632;2023-07-31T13:03:23;18.80;99.90
39347;DHT22;26262;49.836;6.632;2023-07-31T13:05:48;18.70;99.90
39347;DHT22;26262;49.836;6.632;2023-07-31T13:08:14;18.90;99.90
39347;DHT22;26262;49.836;6.632;2023-07-31T13:10:42;18.70;99.90
39347;DHT22;26262;49.836;6.632;2023-07-31T13:13:07;18.70;99.90
39347;DHT22;26262;49.836;6.632;2023-07-31T13:15:33;18.90;99.90
39347;DHT22;26262;49.836;6.632;2023-07-31T13:17:58;18.90;99.90
39347;DHT22;26262;49.836;6.632;2023-07-31T13:20:24;19.00;99.90
39347;DHT22;26262;49.836;6.632;2023-07-31T13:22:50;19.00;99.90
39347;DHT22;26262;49.836;6.632;2023-07-31T13:25:15;19.10;99.90
39347;DHT22;26262;49.836;6.632;2023-07-31T13:27:41;19.10;99.90
39347;DHT22;26262;49.836;6.632;2023-07-31T13:30:06;19.00;99.90
39347;DHT22;26262;49.836;6.632;2023-07-31T13:32:32;19.30;99.90
39347;DHT22;26262;49.836;6.632;2023-07-31T13:34:57;19.40;99.90
39347;DHT22;26262;49.836;6.632;2023-07-31T13:37:23;19.50;99.90
39347;DHT22;26262;49.836;6.632;2023-07-31T13:39:48;19.50;99.90
39347;DHT22;26262;49.836;6.632;2023-07-31T13:42:14;19.30;99.90
39347;DHT22;26262;49.836;6.632;2023-07-31T13:44:39;19.50;99.90
39347;DHT22;26262;49.836;6.632;2023-07-31T13:47:05;19.40;99.90
39347;DHT22;26262;49.836;6.632;2023-07-31T13:49:30;19.60;99.90
39347;DHT22;26262;49.836;6.632;2023-07-31T13:51:56;19.70;99.90
39347;DHT22;26262;49.836;6.632;2023-07-31T13:54:22;19.50;99.90
39347;DHT22;26262;49.836;6.632;2023-07-31T13:56:48;19.60;99.90
39347;DHT22;26262;49.836;6.632;2023-07-31T13:59:13;19.50;99.90
39347;DHT22;26262;49.836;6.632;2023-07-31T14:01:40;19.50;99.90
39347;DHT22;26262;49.836;6.632;2023-07-31T14:04:05;19.30;99.90
39347;DHT22;26262;49.836;6.632;2023-07-31T14:06:31;19.30;99.90
39347;DHT22;26262;49.836;6.632;2023-07-31T14:08:56;19.40;99.90
39347;DHT22;26262;49.836;6.632;2023-07-31T14:11:22;19.40;99.90
39347;DHT22;26262;49.836;6.632;2023-07-31T14:13:47;19.30;99.90
39347;DHT22;26262;49.836;6.632;2023-07-31T14:16:13;19.20;99.90
39347;DHT22;26262;49.836;6.632;2023-07-31T14:18:38;19.20;99.90
39347;DHT22;26262;49.836;6.632;2023-07-31T14:21:04;19.20;99.90
39347;DHT22;26262;49.836;6.632;2023-07-31T14:23:29;19.30;99.90
39347;DHT22;26262;49.836;6.632;2023-07-31T14:25:55;19.20;99.90
39347;DHT22;26262;49.836;6.632;2023-07-31T14:28:20;19.20;99.90
39347;DHT22;26262;49.836;6.632;2023-07-31T14:30:46;18.90;99.90
39347;DHT22;26262;49.836;6.632;2023-07-31T14:33:11;19.00;99.90
39347;DHT22;26262;49.836;6.632;2023-07-31T14:35:37;19.00;99.90
39347;DHT22;26262;49.836;6.632;2023-07-31T14:38:02;18.60;99.90
39347;DHT22;26262;49.836;6.632;2023-07-31T14:40:27;18.70;99.90
39347;DHT22;26262;49.836;6.632;2023-07-31T14:42:53;18.50;99.90
39347;DHT22;26262;49.836;6.632;2023-07-31T14:45:18;18.30;99.90
39347;DHT22;26262;49.836;6.632;2023-07-31T14:47:44;18.30;99.90
39347;DHT22;26262;49.836;6.632;2023-07-31T14:50:09;17.90;99.90
39347;DHT22;26262;49.836;6.632;2023-07-31T14:52:35;18.00;99.90
39347;DHT22;26262;49.836;6.632;2023-07-31T14:55:00;17.90;99.90
39347;DHT22;26262;49.836;6.632;2023-07-31T14:57:26;17.80;99.90
39347;DHT22;26262;49.836;6.632;2023-07-31T14:59:51;17.80;99.90
39347;DHT22;26262;49.836;6.632;2023-07-31T15:02:17;17.90;99.90
39347;DHT22;26262;49.836;6.632;2023-07-31T15:04:42;17.90;99.90
39347;DHT22;26262;49.836;6.632;2023-07-31T15:07:08;18.00;99.90
39347;DHT22;26262;49.836;6.632;2023-07-31T15:09:33;18.20;99.90
39347;DHT22;26262;49.836;6.632;2023-07-31T15:11:59;18.40;99.90
39347;DHT22;26262;49.836;6.632;2023-07-31T15:14:24;18.60;99.90
39347;DHT22;26262;49.836;6.632;2023-07-31T15:16:50;18.80;99.90
39347;DHT22;26262;49.836;6.632;2023-07-31T15:19:16;18.90;99.90
39347;DHT22;26262;49.836;6.632;2023-07-31T15:21:41;18.90;99.90
39347;DHT22;26262;49.836;6.632;2023-07-31T15:24:07;19.00;99.90
39347;DHT22;26262;49.836;6.632;2023-07-31T15:26:32;18.90;99.90
39347;DHT22;26262;49.836;6.632;2023-07-31T15:29:02;18.70;99.90
39347;DHT22;26262;49.836;6.632;2023-07-31T15:31:30;18.40;99.90
39347;DHT22;26262;49.836;6.632;2023-07-31T15:33:56;18.20;99.90
39347;DHT22;26262;49.836;6.632;2023-07-31T15:36:21;18.20;99.90